Terminal Aerodrome Forecast
Issued by NWS Sterling, VA

Current Version | Previous Version | Graphics & Text | Print | Product List | Glossary On
Versions: 1 2 3 4 5 6 7 8 9 10 11 12 13 14 15 16 17 18 19 20 21
131
FTUS41 KLWX 240537
TAFDCA
TAF
KDCA 240537Z 2406/2506 17006KT P6SM FEW120 FEW250
     FM241500 20009KT P6SM SCT080 OVC090
     FM241900 20013G21KT P6SM SCT070 BKN100
     FM250000 21008KT P6SM SCT060 BKN250=

USA.gov is the U.S. government's official web portal to all federal, state and local government web resources and services.